Time;durP1;ratioP1;P1;durP2;ratioP2;P2;SDS_P1;SDS_P2;PMS_P1;PMS_P2;Temp;Humidity;BMP_temperature;BMP_pressure;BME280_temperature;BME280_humidity;BME280_pressure;Samples;Min_cycle;Max_cycle;Signal;HPM_P1;HPM_P2
2021/03/23 00:01:51;;;;;;;1999.90;999.90;;;;;;;;;;5057263;28;20211;-34
2021/03/23 00:04:37;;;;;;;1999.90;999.90;;;;;;;;;;5057223;28;20351;-35
2021/03/23 00:07:23;;;;;;;1999.90;999.90;;;;;;;;;;5057153;28;20201;-39
2021/03/23 00:10:12;;;;;;;1999.90;999.90;;;;;;;;;;5057880;28;20637;-35
2021/03/23 00:12:57;;;;;;;1999.90;999.90;;;;;;;;;;5057513;28;20232;-38
2021/03/23 00:15:43;;;;;;;1999.90;999.90;;;;;;;;;;5057181;28;20327;-34
2021/03/23 00:18:30;;;;;;;1999.90;999.90;;;;;;;;;;5057146;28;20343;-34
2021/03/23 00:21:16;;;;;;;1999.90;999.90;;;;;;;;;;5057313;28;20205;-34
2021/03/23 00:24:01;;;;;;;1999.90;999.90;;;;;;;;;;5057298;28;20278;-34
2021/03/23 00:26:47;;;;;;;1999.90;999.90;;;;;;;;;;5057104;28;20374;-34
2021/03/23 00:29:33;;;;;;;1999.90;999.90;;;;;;;;;;5056836;28;20320;-38
2021/03/23 00:32:25;;;;;;;1999.90;999.90;;;;;;;;;;5056486;28;20211;-37
2021/03/23 00:35:20;;;;;;;1999.90;999.90;;;;;;;;;;5056352;28;20343;-32
2021/03/23 00:38:09;;;;;;;1999.90;999.90;;;;;;;;;;5056849;28;20815;-36
2021/03/23 00:40:55;;;;;;;1999.90;999.90;;;;;;;;;;5056716;28;20224;-32
2021/03/23 00:43:41;;;;;;;1999.90;999.90;;;;;;;;;;5057069;28;20262;-35
2021/03/23 00:46:27;;;;;;;1999.90;999.90;;;;;;;;;;5056478;28;20590;-33
2021/03/23 00:49:14;;;;;;;1999.90;999.90;;;;;;;;;;5056725;28;20559;-47
2021/03/23 00:52:00;;;;;;;1999.90;999.90;;;;;;;;;;5056935;28;20207;-34
2021/03/23 00:54:46;;;;;;;1999.90;999.90;;;;;;;;;;5056567;28;20364;-32
2021/03/23 00:57:33;;;;;;;1999.90;999.90;;;;;;;;;;5056896;28;20243;-34
2021/03/23 01:00:22;;;;;;;1999.90;999.90;;;;;;;;;;5056547;28;20208;-37
2021/03/23 01:03:09;;;;;;;1999.90;999.90;;;;;;;;;;5056618;28;20199;-34
2021/03/23 01:06:03;;;;;;;1999.90;999.90;;;;;;;;;;5056853;28;20508;-32
2021/03/23 01:08:50;;;;;;;1999.90;999.90;;;;;;;;;;5056694;28;20194;-33
2021/03/23 01:11:35;;;;;;;1999.90;999.90;;;;;;;;;;5056752;28;20586;-37
2021/03/23 01:14:22;;;;;;;1999.90;999.90;;;;;;;;;;5056443;28;20228;-32
2021/03/23 01:17:08;;;;;;;1999.90;999.90;;;;;;;;;;5056369;28;20588;-33
2021/03/23 01:19:58;;;;;;;1999.90;999.90;;;;;;;;;;5056467;28;20200;-35
2021/03/23 01:22:44;;;;;;;1999.90;999.90;;;;;;;;;;5056569;28;20198;-37
2021/03/23 01:25:30;;;;;;;1999.90;999.90;;;;;;;;;;5055792;28;20202;-35
2021/03/23 01:28:16;;;;;;;1999.90;999.90;;;;;;;;;;5057059;28;20203;-34
2021/03/23 01:31:03;;;;;;;1999.90;999.90;;;;;;;;;;5056237;28;20204;-36
2021/03/23 01:33:50;;;;;;;1999.90;999.90;;;;;;;;;;5056142;28;20337;-36
2021/03/23 01:36:36;;;;;;;1999.90;999.90;;;;;;;;;;5056212;28;20209;-33
2021/03/23 01:39:28;;;;;;;1999.90;999.90;;;;;;;;;;5055790;28;20573;-32
2021/03/23 01:42:15;;;;;;;1999.90;999.90;;;;;;;;;;5056138;28;20207;-32
2021/03/23 01:45:21;;;;;;;1999.90;999.90;;;;;;;;;;5056245;28;20197;-33
2021/03/23 01:48:15;;;;;;;1999.90;999.90;;;;;;;;;;5055983;28;20206;-34
2021/03/23 01:51:05;;;;;;;1999.90;999.90;;;;;;;;;;5057582;28;20207;-33
2021/03/23 01:53:55;;;;;;;1999.90;999.90;;;;;;;;;;5060529;28;20241;-33
2021/03/23 01:56:42;;;;;;;1999.90;999.90;;;;;;;;;;5059854;28;20257;-34
2021/03/23 01:59:36;;;;;;;1999.90;999.90;;;;;;;;;;5060033;28;20200;-32
2021/03/23 02:02:23;;;;;;;1999.90;999.90;;;;;;;;;;5060040;28;20199;-33
2021/03/23 02:05:27;;;;;;;1999.90;999.90;;;;;;;;;;5059636;28;20492;-32
2021/03/23 02:08:21;;;;;;;1999.90;999.90;;;;;;;;;;5059843;28;20637;-33
2021/03/23 02:11:07;;;;;;;1999.90;999.90;;;;;;;;;;5059753;28;20210;-34
2021/03/23 02:13:55;;;;;;;1999.90;999.90;;;;;;;;;;5059614;28;20324;-35
2021/03/23 02:16:45;;;;;;;1999.90;999.90;;;;;;;;;;5059408;28;20231;-32
2021/03/23 02:19:31;;;;;;;1999.90;999.90;;;;;;;;;;5059398;28;20357;-35
2021/03/23 02:22:27;;;;;;;1999.90;999.90;;;;;;;;;;5059475;28;20197;-35
2021/03/23 02:25:15;;;;;;;1999.90;999.90;;;;;;;;;;5059460;28;20603;-34
2021/03/23 02:28:01;;;;;;;1999.90;999.90;;;;;;;;;;5058962;28;20203;-33
2021/03/23 02:30:48;;;;;;;1999.90;999.90;;;;;;;;;;5059588;28;20486;-34
2021/03/23 02:33:34;;;;;;;1999.90;999.90;;;;;;;;;;5059268;28;20246;-33
2021/03/23 02:36:21;;;;;;;1999.90;999.90;;;;;;;;;;5059201;28;20311;-32
2021/03/23 02:39:09;;;;;;;1999.90;999.90;;;;;;;;;;5058557;28;20206;-33
2021/03/23 02:41:57;;;;;;;1999.90;999.90;;;;;;;;;;5059316;28;20205;-34
2021/03/23 02:44:43;;;;;;;1999.90;999.90;;;;;;;;;;5060035;28;20561;-35
2021/03/23 02:47:30;;;;;;;1999.90;999.90;;;;;;;;;;5058929;28;20207;-33
2021/03/23 02:50:16;;;;;;;1999.90;999.90;;;;;;;;;;5059011;28;20289;-33
2021/03/23 02:53:02;;;;;;;1999.90;999.90;;;;;;;;;;5059102;28;20542;-38
2021/03/23 02:55:49;;;;;;;1999.90;999.90;;;;;;;;;;5058511;28;20329;-32
2021/03/23 02:58:36;;;;;;;1999.90;999.90;;;;;;;;;;5058470;28;20203;-35
2021/03/23 03:01:22;;;;;;;1999.90;999.90;;;;;;;;;;5058531;28;20281;-38
2021/03/23 03:04:11;;;;;;;1999.90;999.90;;;;;;;;;;5057974;28;20219;-36
2021/03/23 03:06:57;;;;;;;1999.90;999.90;;;;;;;;;;5058754;28;20199;-37
2021/03/23 03:09:44;;;;;;;1999.90;999.90;;;;;;;;;;5058559;28;20205;-33
2021/03/23 03:12:33;;;;;;;1999.90;999.90;;;;;;;;;;5058675;28;20224;-38
2021/03/23 03:15:20;;;;;;;1999.90;999.90;;;;;;;;;;5058439;28;20234;-34
2021/03/23 03:18:06;;;;;;;1999.90;999.90;;;;;;;;;;5058537;28;20234;-34
2021/03/23 03:20:52;;;;;;;1999.90;999.90;;;;;;;;;;5058406;28;20276;-36
2021/03/23 03:23:38;;;;;;;1999.90;999.90;;;;;;;;;;5059332;28;20208;-35
2021/03/23 03:26:26;;;;;;;1999.90;999.90;;;;;;;;;;5058054;28;20620;-33
2021/03/23 03:29:13;;;;;;;1999.90;999.90;;;;;;;;;;5058531;28;20206;-38
2021/03/23 03:31:58;;;;;;;1999.90;999.90;;;;;;;;;;5058272;28;20549;-37
2021/03/23 03:34:44;;;;;;;1999.90;999.90;;;;;;;;;;5057937;28;20224;-34
2021/03/23 03:37:30;;;;;;;1999.90;999.90;;;;;;;;;;5058446;28;20602;-35
2021/03/23 03:40:21;;;;;;;1999.90;999.90;;;;;;;;;;5057764;28;20203;-34
2021/03/23 03:43:07;;;;;;;1999.90;999.90;;;;;;;;;;5058014;28;20657;-32
2021/03/23 03:45:55;;;;;;;1999.90;999.90;;;;;;;;;;5058406;28;20203;-35
2021/03/23 03:48:41;;;;;;;1999.90;999.90;;;;;;;;;;5057687;28;20239;-33
2021/03/23 03:51:27;;;;;;;1999.90;999.90;;;;;;;;;;5058035;28;20597;-33
2021/03/23 03:54:15;;;;;;;1999.90;999.90;;;;;;;;;;5057525;28;20230;-37
2021/03/23 03:57:05;;;;;;;1999.90;999.90;;;;;;;;;;5057592;28;20211;-34
2021/03/23 03:59:55;;;;;;;1999.90;999.90;;;;;;;;;;5057455;28;20359;-34
2021/03/23 04:02:43;;;;;;;1999.90;999.90;;;;;;;;;;5058028;28;20484;-32
2021/03/23 04:05:30;;;;;;;1999.90;999.90;;;;;;;;;;5057608;28;20192;-34
2021/03/23 04:08:18;;;;;;;1999.90;999.90;;;;;;;;;;5057334;28;20202;-35
2021/03/23 04:11:09;;;;;;;1999.90;999.90;;;;;;;;;;5057656;28;20208;-34
2021/03/23 04:13:54;;;;;;;1999.90;999.90;;;;;;;;;;5056629;28;20248;-36
2021/03/23 04:16:40;;;;;;;1999.90;999.90;;;;;;;;;;5057466;28;20302;-35
2021/03/23 04:19:27;;;;;;;1999.90;999.90;;;;;;;;;;5057317;28;20304;-35
2021/03/23 04:22:13;;;;;;;1999.90;999.90;;;;;;;;;;5057505;28;20203;-32
2021/03/23 04:25:00;;;;;;;1999.90;999.90;;;;;;;;;;5057214;28;20354;-34
2021/03/23 04:27:46;;;;;;;1999.90;999.90;;;;;;;;;;5057127;28;20211;-34
2021/03/23 04:30:33;;;;;;;1999.90;999.90;;;;;;;;;;5056759;28;20202;-35
2021/03/23 04:33:22;;;;;;;1999.90;999.90;;;;;;;;;;5056627;28;20266;-32
2021/03/23 04:36:11;;;;;;;1999.90;999.90;;;;;;;;;;5057084;28;20204;-37
2021/03/23 04:38:56;;;;;;;1999.90;999.90;;;;;;;;;;5046354;28;20487;-37
2021/03/23 04:41:42;;;;;;;1999.90;999.90;;;;;;;;;;5037083;28;20298;-34
2021/03/23 04:44:31;;;;;;;1999.90;999.90;;;;;;;;;;5037277;28;20205;-38
2021/03/23 04:47:17;;;;;;;1999.90;999.90;;;;;;;;;;5037321;28;20203;-36
2021/03/23 04:50:03;;;;;;;1999.90;999.90;;;;;;;;;;5036798;28;20233;-33
2021/03/23 04:52:51;;;;;;;1999.90;999.90;;;;;;;;;;5037273;28;20265;-36
2021/03/23 04:55:36;;;;;;;1999.90;999.90;;;;;;;;;;5036233;28;20231;-32
2021/03/23 04:58:25;;;;;;;1999.90;999.90;;;;;;;;;;5036566;28;20316;-32
2021/03/23 05:01:15;;;;;;;1999.90;999.90;;;;;;;;;;5036646;28;20708;-34
2021/03/23 05:04:02;;;;;;;1999.90;999.90;;;;;;;;;;5037093;28;20215;-33
2021/03/23 05:06:51;;;;;;;1999.90;999.90;;;;;;;;;;5036529;28;20204;-34
2021/03/23 05:09:38;;;;;;;1999.90;999.90;;;;;;;;;;5037006;28;20201;-32
2021/03/23 05:12:25;;;;;;;1999.90;999.90;;;;;;;;;;5037023;28;20202;-38
2021/03/23 05:15:11;;;;;;;1999.90;999.90;;;;;;;;;;5036721;28;20240;-35
2021/03/23 05:17:57;;;;;;;1999.90;999.90;;;;;;;;;;5036958;28;20211;-35
2021/03/23 05:20:44;;;;;;;1999.90;999.90;;;;;;;;;;5037116;28;20202;-34
2021/03/23 05:23:35;;;;;;;1999.90;999.90;;;;;;;;;;5036593;28;20203;-35
2021/03/23 05:26:30;;;;;;;1999.90;999.90;;;;;;;;;;5038836;28;20250;-32
2021/03/23 05:29:30;;;;;;;1999.90;999.90;;;;;;;;;;5040892;28;20600;-32
2021/03/23 05:32:15;;;;;;;1999.90;999.90;;;;;;;;;;5040753;28;20286;-32
2021/03/23 05:35:01;;;;;;;1999.90;999.90;;;;;;;;;;5040272;28;20330;-38
2021/03/23 05:38:05;;;;;;;1999.90;999.90;;;;;;;;;;5040528;28;20275;-34
2021/03/23 05:40:53;;;;;;;1999.90;999.90;;;;;;;;;;5041342;28;20262;-35
2021/03/23 05:43:49;;;;;;;1999.90;999.90;;;;;;;;;;5040675;28;20194;-34
2021/03/23 05:46:36;;;;;;;1999.90;999.90;;;;;;;;;;5039721;28;20209;-33
2021/03/23 05:49:28;;;;;;;1999.90;999.90;;;;;;;;;;5039788;28;20232;-37
2021/03/23 05:52:20;;;;;;;1999.90;999.90;;;;;;;;;;5040179;28;20198;-37
2021/03/23 05:55:18;;;;;;;1999.90;999.90;;;;;;;;;;5054160;28;20631;-35
2021/03/23 05:58:04;;;;;;;1999.90;999.90;;;;;;;;;;5060616;28;20203;-34
2021/03/23 06:00:55;;;;;;;1999.90;999.90;;;;;;;;;;5059758;28;20588;-33
2021/03/23 06:03:44;;;;;;;1999.90;999.90;;;;;;;;;;5059445;28;20502;-34
2021/03/23 06:06:36;;;;;;;1999.90;999.90;;;;;;;;;;5059192;28;20203;-36
2021/03/23 06:09:29;;;;;;;1999.90;999.90;;;;;;;;;;5059515;28;20207;-33
2021/03/23 06:12:20;;;;;;;1999.90;999.90;;;;;;;;;;5059478;28;20294;-34
2021/03/23 06:15:12;;;;;;;1999.90;999.90;;;;;;;;;;5058535;28;20372;-35
2021/03/23 06:18:01;;;;;;;1999.90;999.90;;;;;;;;;;5059256;28;20204;-38
2021/03/23 06:20:59;;;;;;;1999.90;999.90;;;;;;;;;;5059184;28;20201;-32
2021/03/23 06:24:00;;;;;;;1999.90;999.90;;;;;;;;;;5059228;28;20226;-37
2021/03/23 06:26:50;;;;;;;1999.90;999.90;;;;;;;;;;5058958;28;20770;-34
2021/03/23 06:29:52;;;;;;;1999.90;999.90;;;;;;;;;;5058628;28;20216;-34
2021/03/23 06:32:40;;;;;;;1999.90;999.90;;;;;;;;;;5058668;28;20556;-34
2021/03/23 06:35:29;;;;;;;1999.90;999.90;;;;;;;;;;5058162;28;20520;-34
2021/03/23 06:38:23;;;;;;;1999.90;999.90;;;;;;;;;;5057861;28;20492;-34
2021/03/23 06:41:13;;;;;;;1999.90;999.90;;;;;;;;;;5058616;28;20209;-37
2021/03/23 06:44:17;;;;;;;1999.90;999.90;;;;;;;;;;5058908;28;20278;-34
2021/03/23 06:47:03;;;;;;;1999.90;999.90;;;;;;;;;;5058780;28;20205;-34
2021/03/23 06:49:49;;;;;;;1999.90;999.90;;;;;;;;;;5059053;28;20298;-34
2021/03/23 06:52:37;;;;;;;1999.90;999.90;;;;;;;;;;5057447;28;20200;-32
2021/03/23 06:55:24;;;;;;;1999.90;999.90;;;;;;;;;;5058569;28;20278;-32
2021/03/23 06:58:28;;;;;;;1999.90;999.90;;;;;;;;;;5059324;28;20214;-35
2021/03/23 07:01:16;;;;;;;1999.90;999.90;;;;;;;;;;5058023;28;20200;-36
2021/03/23 07:04:16;;;;;;;1999.90;999.90;;;;;;;;;;5057990;28;20251;-32
2021/03/23 07:07:04;;;;;;;1999.90;999.90;;;;;;;;;;5057703;28;20306;-34
2021/03/23 07:09:54;;;;;;;1999.90;999.90;;;;;;;;;;5044210;28;20367;-33
2021/03/23 07:12:42;;;;;;;1999.90;999.90;;;;;;;;;;5038464;28;20214;-33
2021/03/23 07:15:29;;;;;;;1999.90;999.90;;;;;;;;;;5037819;28;20296;-33
2021/03/23 07:18:20;;;;;;;1999.90;999.90;;;;;;;;;;5038161;28;20201;-36
2021/03/23 07:21:14;;;;;;;1999.90;999.90;;;;;;;;;;5037903;28;20248;-31
2021/03/23 07:24:04;;;;;;;1999.90;999.90;;;;;;;;;;5037565;28;20272;-31
2021/03/23 07:26:58;;;;;;;1999.90;999.90;;;;;;;;;;5037331;28;20220;-32
2021/03/23 07:29:44;;;;;;;1999.90;999.90;;;;;;;;;;5037550;28;20201;-36
2021/03/23 07:32:38;;;;;;;1999.90;999.90;;;;;;;;;;5037498;28;20269;-33
2021/03/23 07:35:29;;;;;;;1999.90;999.90;;;;;;;;;;5037769;28;20407;-37
2021/03/23 07:38:22;;;;;;;1999.90;999.90;;;;;;;;;;5037235;28;20205;-34
2021/03/23 07:41:16;;;;;;;1999.90;999.90;;;;;;;;;;5037296;28;20208;-32
2021/03/23 07:44:04;;;;;;;1999.90;999.90;;;;;;;;;;5037322;28;20284;-35
2021/03/23 07:46:58;;;;;;;1999.90;999.90;;;;;;;;;;5037356;28;20221;-33
2021/03/23 07:49:46;;;;;;;1999.90;999.90;;;;;;;;;;5036409;28;20487;-33
2021/03/23 07:52:41;;;;;;;1999.90;999.90;;;;;;;;;;5036522;28;20209;-33
2021/03/23 07:55:28;;;;;;;1999.90;999.90;;;;;;;;;;5037493;28;20245;-37
2021/03/23 07:58:22;;;;;;;1999.90;999.90;;;;;;;;;;5037548;28;20197;-34
2021/03/23 08:01:20;;;;;;;1999.90;999.90;;;;;;;;;;5037407;28;20197;-33
2021/03/23 08:04:13;;;;;;;1999.90;999.90;;;;;;;;;;5036863;28;20261;-33
2021/03/23 08:07:04;;;;;;;1999.90;999.90;;;;;;;;;;5037388;28;20340;-32
2021/03/23 08:10:14;;;;;;;1999.90;999.90;;;;;;;;;;5036584;28;20197;-37
2021/03/23 08:13:18;;;;;;;1999.90;999.90;;;;;;;;;;5036934;28;20276;-34
2021/03/23 08:16:20;;;;;;;1999.90;999.90;;;;;;;;;;5036888;28;20310;-31
2021/03/23 08:19:24;;;;;;;1999.90;999.90;;;;;;;;;;5037119;28;20606;-37
2021/03/23 08:22:43;;;;;;;1999.90;999.90;;;;;;;;;;5037359;28;20225;-35
2021/03/23 08:25:48;;;;;;;1999.90;999.90;;;;;;;;;;5036908;28;20212;-34
2021/03/23 08:28:47;;;;;;;1999.90;999.90;;;;;;;;;;5037580;28;20275;-37
2021/03/23 08:31:43;;;;;;;1999.90;999.90;;;;;;;;;;5036541;28;20198;-35
2021/03/23 08:34:38;;;;;;;1999.90;999.90;;;;;;;;;;5036766;28;20221;-35
2021/03/23 08:37:48;;;;;;;1999.90;999.90;;;;;;;;;;5036566;28;20210;-38
2021/03/23 08:40:46;;;;;;;1999.90;999.90;;;;;;;;;;5013815;28;20316;-36
2021/03/23 08:43:35;;;;;;;1999.90;999.90;;;;;;;;;;5037474;28;20277;-32
2021/03/23 08:46:23;;;;;;;1999.90;999.90;;;;;;;;;;5036300;28;20195;-39
2021/03/23 08:49:16;;;;;;;1999.90;999.90;;;;;;;;;;5035632;28;20257;-36
2021/03/23 08:52:16;;;;;;;1999.90;999.90;;;;;;;;;;5035777;28;20273;-32
2021/03/23 08:55:06;;;;;;;1999.90;999.90;;;;;;;;;;5036031;28;20385;-36
2021/03/23 08:57:57;;;;;;;1999.90;999.90;;;;;;;;;;5035806;28;20686;-34
2021/03/23 09:01:01;;;;;;;1999.90;999.90;;;;;;;;;;5055225;28;20509;-34
2021/03/23 09:03:52;;;;;;;1999.90;999.90;;;;;;;;;;5056607;28;20208;-33
2021/03/23 09:06:47;;;;;;;1999.90;999.90;;;;;;;;;;5056346;28;20193;-37
2021/03/23 09:09:36;;;;;;;1999.90;999.90;;;;;;;;;;5055857;28;20197;-36
2021/03/23 09:12:39;;;;;;;1999.90;999.90;;;;;;;;;;5056212;28;20228;-36
2021/03/23 09:15:25;;;;;;;1999.90;999.90;;;;;;;;;;5055977;28;20221;-36
2021/03/23 09:18:26;;;;;;;1999.90;999.90;;;;;;;;;;5055929;28;20208;-38
2021/03/23 09:21:25;;;;;;;1999.90;999.90;;;;;;;;;;5056153;28;20212;-38
2021/03/23 09:24:26;;;;;;;1999.90;999.90;;;;;;;;;;5055714;28;20201;-32
2021/03/23 09:27:35;;;;;;;1999.90;999.90;;;;;;;;;;5055345;28;20200;-36
2021/03/23 09:30:38;;;;;;;1999.90;999.90;;;;;;;;;;5056191;28;20200;-33
2021/03/23 10:10:25;;;;;;;1999.90;999.90;;;;;;;11.62;92.78;-18218.31;5051628;27;2402627;-34
2021/03/23 10:13:21;;;;;;;1999.90;999.90;;;;;;;11.16;96.17;-18206.16;5134458;28;20669;-32
2021/03/23 10:16:21;;;;;;;1999.90;999.90;;;;;;;10.79;94.96;-18196.53;5134049;28;20197;-33
2021/03/23 10:19:10;;;;;;;1999.90;999.90;;;;;;;11.65;92.55;-18219.25;5133994;28;20250;-34
2021/03/23 10:21:58;;;;;;;1999.90;999.90;;;;;;;11.82;90.61;-18223.66;5134643;28;20291;-37
2021/03/23 10:24:47;;;;;;;1999.90;999.90;;;;;;;12.54;86.69;-18242.47;5134121;28;20323;-36
2021/03/23 10:27:35;;;;;;;1999.90;999.90;;;;;;;12.79;86.90;-18249.16;5133808;28;20205;-36
2021/03/23 10:30:31;;;;;;;1999.90;999.90;;;;;;;12.74;83.56;-18247.81;5133467;28;20203;-36
2021/03/23 10:33:21;;;;;;;1999.90;999.90;;;;;;;12.30;85.67;-18236.22;5128741;28;20210;-37
2021/03/23 10:36:11;;;;;;;1999.90;999.90;;;;;;;13.51;84.84;-18267.97;5133023;28;20206;-37
2021/03/23 10:38:56;;;;;;;1999.90;999.90;;;;;;;13.77;78.42;-18274.91;5133805;28;20299;-34
2021/03/23 10:41:54;;;;;;;1999.90;999.90;;;;;;;12.63;82.50;-18244.88;5133698;28;20600;-39
2021/03/23 10:44:40;;;;;;;1999.90;999.90;;;;;;;13.79;80.52;-18275.56;5134063;28;20201;-37
2021/03/23 10:47:32;;;;;;;1999.90;999.90;;;;;;;13.86;78.45;-18277.31;5133770;28;20202;-37
2021/03/23 10:50:23;;;;;;;1999.90;999.90;;;;;;;14.14;79.24;-18284.78;5133842;28;20198;-35
2021/03/23 10:53:23;;;;;;;1999.90;999.90;;;;;;;14.90;75.55;-18304.50;5133001;28;20198;-33
2021/03/23 10:56:20;;;;;;;1999.90;999.90;;;;;;;13.68;76.71;-18272.50;5131911;28;20194;-37
2021/03/23 10:59:08;;;;;;;1999.90;999.90;;;;;;;13.26;80.38;-18261.56;5133006;28;20735;-36
2021/03/23 11:02:01;;;;;;;1999.90;999.90;;;;;;;12.97;86.48;-18253.97;5133843;28;20303;-36
2021/03/23 11:05:08;;;;;;;1999.90;999.90;;;;;;;13.41;81.59;-18265.56;5133594;28;20361;-38
2021/03/23 11:08:01;;;;;;;1999.90;999.90;;;;;;;13.47;80.93;-18266.91;5133075;28;20223;-37
2021/03/23 11:10:48;;;;;;;1999.90;999.90;;;;;;;13.61;82.07;-18270.78;5122249;28;20199;-36
2021/03/23 11:13:34;;;;;;;1999.90;999.90;;;;;;;14.38;79.20;-18291.03;5118466;28;20750;-37
2021/03/23 11:16:21;;;;;;;1999.90;999.90;;;;;;;14.11;77.13;-18283.97;5118491;28;20198;-38
2021/03/23 11:19:27;;;;;;;1999.90;999.90;;;;;;;13.60;78.59;-18270.50;5117888;28;20218;-37
2021/03/23 11:22:18;;;;;;;1999.90;999.90;;;;;;;14.41;77.42;-18291.69;5118568;28;20540;-35
2021/03/23 11:25:08;;;;;;;1999.90;999.90;;;;;;;14.89;77.05;-18304.38;5119187;28;20206;-38
2021/03/23 11:27:55;;;;;;;1999.90;999.90;;;;;;;13.86;80.77;-18277.31;5118711;28;20191;-41
2021/03/23 11:30:41;;;;;;;1999.90;999.90;;;;;;;12.66;85.67;-18245.81;5119985;28;20276;-39
2021/03/23 11:33:28;;;;;;;1999.90;999.90;;;;;;;12.85;89.05;-18250.63;5119470;28;20199;-38
2021/03/23 11:36:18;;;;;;;1999.90;999.90;;;;;;;14.66;82.36;-18298.38;5118226;28;20199;-35
2021/03/23 11:39:05;;;;;;;1999.90;999.90;;;;;;;15.11;77.16;-18310.09;5119046;28;20451;-37
2021/03/23 11:42:01;;;;;;;1999.90;999.90;;;;;;;14.43;76.44;-18292.38;5119434;28;20435;-33
2021/03/23 11:44:51;;;;;;;1999.90;999.90;;;;;;;14.59;78.01;-18296.38;5118586;28;20198;-33
2021/03/23 11:47:42;;;;;;;1999.90;999.90;;;;;;;15.12;75.86;-18310.34;5118635;28;20198;-34
2021/03/23 11:50:34;;;;;;;1999.90;999.90;;;;;;;14.52;76.60;-18294.50;5118971;28;20261;-37
2021/03/23 11:53:22;;;;;;;1999.90;999.90;;;;;;;14.20;77.62;-18286.22;5118471;28;20266;-39
2021/03/23 11:56:11;;;;;;;1999.90;999.90;;;;;;;14.38;78.13;-18291.03;5118679;28;20336;-37
2021/03/23 11:59:00;;;;;;;1999.90;999.90;;;;;;;14.95;75.20;-18305.97;5118881;28;20199;-33
2021/03/23 12:01:51;;;;;;;1999.90;999.90;;;;;;;14.91;74.71;-18304.75;5118482;28;20202;-33
2021/03/23 12:04:40;;;;;;;1999.90;999.90;;;;;;;14.57;78.83;-18295.97;5118781;28;20195;-37
2021/03/23 12:07:48;;;;;;;1999.90;999.90;;;;;;;13.93;76.59;-18279.03;5118044;28;20207;-34
2021/03/23 12:10:41;;;;;;;1999.90;999.90;;;;;;;14.27;79.96;-18287.97;5115124;28;20195;-32
2021/03/23 12:13:36;;;;;;;1999.90;999.90;;;;;;;13.83;82.68;-18276.50;5097738;28;20289;-34
2021/03/23 12:16:33;;;;;;;1999.90;999.90;;;;;;;13.65;80.45;-18271.69;5097758;28;20194;-35
2021/03/23 12:19:43;;;;;;;1999.90;999.90;;;;;;;13.05;91.39;-18255.97;5097567;28;20610;-34
2021/03/23 12:22:32;;;;;;;1999.90;999.90;;;;;;;13.78;82.72;-18275.31;5096662;28;20562;-36
2021/03/23 12:25:22;;;;;;;1999.90;999.90;;;;;;;13.76;82.64;-18274.63;5096988;28;20373;-35
2021/03/23 12:28:11;;;;;;;1999.90;999.90;;;;;;;14.06;83.93;-18282.63;5096550;28;20372;-36
2021/03/23 12:31:05;;;;;;;1999.90;999.90;;;;;;;14.38;80.38;-18290.91;5096157;28;20195;-34
2021/03/23 12:33:51;;;;;;;1999.90;999.90;;;;;;;14.72;80.25;-18299.97;5097261;28;20621;-33
2021/03/23 12:36:42;;;;;;;1999.90;999.90;;;;;;;13.37;83.34;-18264.50;5096152;28;20582;-37
2021/03/23 12:39:29;;;;;;;1999.90;999.90;;;;;;;13.12;83.73;-18257.81;5096755;28;20200;-35
2021/03/23 12:42:17;;;;;;;1999.90;999.90;;;;;;;13.43;84.01;-18266.09;5097313;28;20266;-35
2021/03/23 12:45:04;;;;;;;1999.90;999.90;;;;;;;13.50;83.63;-18267.84;5097089;28;20288;-35
2021/03/23 12:47:51;;;;;;;1999.90;999.90;;;;;;;13.29;81.22;-18262.22;5097350;28;20199;-35
2021/03/23 12:50:39;;;;;;;1999.90;999.90;;;;;;;13.61;81.00;-18270.63;5096722;28;20192;-33
2021/03/23 12:53:25;;;;;;;1999.90;999.90;;;;;;;13.29;83.46;-18262.38;5096643;28;20199;-36
2021/03/23 12:56:21;;;;;;;1999.90;999.90;;;;;;;14.02;82.68;-18281.56;5096269;28;20204;-34
2021/03/23 12:59:20;;;;;;;1999.90;999.90;;;;;;;15.10;73.64;-18309.97;5097000;28;20195;-36
2021/03/23 13:02:07;;;;;;;1999.90;999.90;;;;;;;13.73;76.97;-18273.97;5097255;28;20199;-36
2021/03/23 13:04:54;;;;;;;1999.90;999.90;;;;;;;13.50;80.63;-18267.69;5097694;28;20769;-34
2021/03/23 13:07:41;;;;;;;1999.90;999.90;;;;;;;13.90;78.91;-18278.25;5096705;28;20200;-33
2021/03/23 13:10:32;;;;;;;1999.90;999.90;;;;;;;14.14;80.09;-18284.63;5100843;28;20262;-37
2021/03/23 13:13:21;;;;;;;1999.90;999.90;;;;;;;13.94;77.71;-18279.31;5109040;28;20237;-35
2021/03/23 13:16:08;;;;;;;1999.90;999.90;;;;;;;13.73;80.04;-18273.84;5117470;28;20206;-37
2021/03/23 13:18:56;;;;;;;1999.90;999.90;;;;;;;14.13;82.66;-18284.50;5117188;28;20291;-36
2021/03/23 13:21:46;;;;;;;1999.90;999.90;;;;;;;12.71;87.15;-18247.16;5098102;28;20680;-33
2021/03/23 13:24:38;;;;;;;1999.90;999.90;;;;;;;13.05;86.58;-18255.97;5096249;28;20191;-36
2021/03/23 13:27:26;;;;;;;1999.90;999.90;;;;;;;13.25;85.48;-18261.31;5096102;28;20203;-35
2021/03/23 13:30:23;;;;;;;1999.90;999.90;;;;;;;13.25;87.14;-18261.16;5095697;28;20223;-32
2021/03/23 13:33:14;;;;;;;1999.90;999.90;;;;;;;13.99;85.20;-18280.63;5096299;28;20363;-34
2021/03/23 13:36:22;;;;;;;1999.90;999.90;;;;;;;13.72;86.69;-18273.72;5096017;28;20354;-34
2021/03/23 13:39:16;;;;;;;1999.90;999.90;;;;;;;14.12;81.74;-18284.25;5096384;28;20310;-34
2021/03/23 13:42:16;;;;;;;1999.90;999.90;;;;;;;14.21;80.39;-18286.38;5095805;28;20207;-37
2021/03/23 13:45:07;;;;;;;1999.90;999.90;;;;;;;14.31;78.52;-18289.03;5095831;28;20325;-34
2021/03/23 13:47:54;;;;;;;1999.90;999.90;;;;;;;13.08;85.34;-18256.75;5110682;28;20291;-35
2021/03/23 13:50:39;;;;;;;1999.90;999.90;;;;;;;13.44;86.54;-18266.38;5115961;28;20218;-34
2021/03/23 13:53:39;;;;;;;1999.90;999.90;;;;;;;13.56;83.77;-18269.31;5116190;28;20259;-35
2021/03/23 13:56:29;;;;;;;1999.90;999.90;;;;;;;13.59;88.14;-18270.22;5115690;28;20206;-35
2021/03/23 13:59:20;;;;;;;1999.90;999.90;;;;;;;13.26;86.54;-18261.44;5116180;28;20198;-37
2021/03/23 14:02:14;;;;;;;1999.90;999.90;;;;;;;12.98;89.55;-18254.22;5115558;28;20199;-34
2021/03/23 14:05:00;;;;;;;1999.90;999.90;;;;;;;13.08;89.08;-18256.91;5116130;28;20267;-34
2021/03/23 14:07:47;;;;;;;1999.90;999.90;;;;;;;12.89;91.79;-18251.69;5116030;28;20206;-32
2021/03/23 14:10:36;;;;;;;1999.90;999.90;;;;;;;12.93;91.49;-18252.75;5072449;28;20207;-37
2021/03/23 14:13:24;;;;;;;1999.90;999.90;;;;;;;13.42;88.96;-18265.69;5071568;28;20328;-34
2021/03/23 14:16:16;;;;;;;1999.90;999.90;;;;;;;13.70;86.23;-18273.03;5075370;28;20262;-36
2021/03/23 14:19:01;;;;;;;1999.90;999.90;;;;;;;13.10;84.13;-18257.28;5075753;28;20211;-35
2021/03/23 14:21:47;;;;;;;1999.90;999.90;;;;;;;13.08;81.71;-18256.91;5075565;28;20600;-36
2021/03/23 14:24:33;;;;;;;1999.90;999.90;;;;;;;13.04;82.13;-18255.69;5076387;28;20203;-37
2021/03/23 14:27:20;;;;;;;1999.90;999.90;;;;;;;13.64;84.19;-18271.56;5075546;28;20199;-38
2021/03/23 14:30:12;;;;;;;1999.90;999.90;;;;;;;13.39;84.27;-18265.03;5075711;28;20231;-33
2021/03/23 14:33:03;;;;;;;1999.90;999.90;;;;;;;13.29;86.85;-18262.22;5075451;28;20508;-33
2021/03/23 14:35:51;;;;;;;1999.90;999.90;;;;;;;13.39;84.92;-18264.91;5075375;28;20193;-33
2021/03/23 14:38:42;;;;;;;1999.90;999.90;;;;;;;13.95;87.86;-18279.72;5073361;28;20294;-33
2021/03/23 14:41:35;;;;;;;1999.90;999.90;;;;;;;13.55;84.44;-18269.03;5075657;28;20347;-32
2021/03/23 14:44:23;;;;;;;1999.90;999.90;;;;;;;13.60;84.30;-18270.50;5075028;28;20200;-32
2021/03/23 14:47:18;;;;;;;1999.90;999.90;;;;;;;13.37;87.96;-18264.38;5078899;28;20200;-37
2021/03/23 14:50:07;;;;;;;1999.90;999.90;;;;;;;13.06;86.12;-18256.22;5078932;28;20247;-34
2021/03/23 14:52:55;;;;;;;1999.90;999.90;;;;;;;13.10;87.88;-18257.28;5079220;28;20212;-36
2021/03/23 14:55:48;;;;;;;1999.90;999.90;;;;;;;13.59;90.40;-18270.22;5078745;28;20204;-35
2021/03/23 14:58:38;;;;;;;1999.90;999.90;;;;;;;13.05;95.02;-18255.97;5078453;28;20594;-34
2021/03/23 15:01:28;;;;;;;1999.90;999.90;;;;;;;13.60;91.03;-18270.50;5078651;28;20560;-34
2021/03/23 15:04:14;;;;;;;1999.90;999.90;;;;;;;12.89;94.44;-18251.69;5078542;28;20301;-38
2021/03/23 15:07:00;;;;;;;1999.90;999.90;;;;;;;13.45;91.99;-18266.50;5079007;28;20215;-36